createdAt,value
2022-09-13T00:01:18.961Z,10.20
2022-09-13T00:03:47.681Z,9.90
2022-09-13T00:06:19.836Z,9.97
2022-09-13T00:08:49.175Z,10.50
2022-09-13T00:11:21.957Z,13.13
2022-09-13T00:13:50.529Z,9.93
2022-09-13T00:16:21.865Z,9.90
2022-09-13T00:18:50.557Z,10.00
2022-09-13T00:21:22.024Z,10.50
2022-09-13T00:23:52.866Z,10.13
2022-09-13T00:26:24.941Z,9.83
2022-09-13T00:28:55.057Z,12.17
2022-09-13T00:31:25.380Z,9.43
2022-09-13T00:33:54.697Z,9.83
2022-09-13T00:36:23.322Z,11.10
2022-09-13T00:38:51.744Z,12.13
2022-09-13T00:41:23.154Z,9.60
2022-09-13T00:43:55.025Z,8.80
2022-09-13T00:46:33.709Z,11.03
2022-09-13T00:49:10.530Z,10.53
2022-09-13T00:51:40.007Z,10.00
2022-09-13T00:54:08.625Z,12.03
2022-09-13T00:56:44.827Z,10.33
2022-09-13T00:59:20.591Z,10.67
2022-09-13T01:01:54.330Z,9.20
2022-09-13T01:04:27.289Z,9.97
2022-09-13T01:07:05.361Z,10.93
2022-09-13T01:09:36.937Z,10.03
2022-09-13T01:12:16.121Z,8.90
2022-09-13T01:14:46.763Z,10.70
2022-09-13T01:17:15.590Z,10.87
2022-09-13T01:19:44.006Z,11.00
2022-09-13T01:23:02.775Z,10.10
2022-09-13T01:26:25.823Z,7.80
2022-09-13T01:29:54.924Z,9.60
2022-09-13T01:32:33.722Z,8.20
2022-09-13T01:35:18.545Z,11.50
2022-09-13T01:37:54.698Z,10.03
2022-09-13T01:40:44.040Z,8.23
2022-09-13T01:43:36.117Z,8.60
2022-09-13T01:46:07.903Z,11.57
2022-09-13T01:48:53.940Z,8.93
2022-09-13T01:51:30.279Z,11.20
2022-09-13T01:54:14.385Z,10.43
2022-09-13T01:56:55.376Z,10.77
2022-09-13T01:59:34.544Z,8.37
2022-09-13T02:02:08.240Z,8.53
2022-09-13T02:04:42.834Z,11.43
2022-09-13T02:07:15.433Z,10.80
2022-09-13T02:09:48.272Z,9.70
2022-09-13T02:12:21.082Z,11.77
2022-09-13T02:14:55.909Z,12.27
2022-09-13T02:17:29.689Z,10.33
2022-09-13T02:20:02.650Z,12.23
2022-09-13T02:22:35.934Z,14.67
2022-09-13T02:25:11.184Z,11.43
2022-09-13T02:27:43.017Z,11.00
2022-09-13T02:30:14.734Z,10.80
2022-09-13T02:32:49.459Z,15.40
2022-09-13T02:35:25.900Z,12.40
2022-09-13T02:38:03.901Z,11.33
2022-09-13T02:40:41.221Z,13.77
2022-09-13T02:43:16.672Z,15.50
2022-09-13T02:45:52.491Z,11.90
2022-09-13T02:48:32.426Z,13.07
2022-09-13T02:51:12.193Z,12.00
2022-09-13T02:53:50.022Z,12.90
2022-09-13T02:56:30.415Z,13.70
2022-09-13T02:59:07.020Z,13.70
2022-09-13T03:01:36.779Z,14.20
2022-09-13T03:04:05.220Z,12.13
2022-09-13T03:06:35.135Z,12.13
2022-09-13T03:09:07.518Z,10.90
2022-09-13T03:11:57.457Z,11.87
2022-09-13T03:14:48.095Z,11.57
2022-09-13T03:17:42.496Z,12.17
2022-09-13T03:20:18.544Z,10.27
2022-09-13T03:23:32.376Z,14.03
2022-09-13T03:26:36.550Z,12.77
2022-09-13T03:29:25.232Z,11.63
2022-09-13T03:32:09.866Z,12.07
2022-09-13T03:34:50.365Z,13.93
2022-09-13T03:37:29.400Z,12.47
2022-09-13T03:40:04.890Z,13.40
2022-09-13T03:42:41.054Z,11.47
2022-09-13T03:45:12.913Z,12.87
2022-09-13T03:47:44.631Z,12.50
2022-09-13T03:50:20.252Z,15.57
2022-09-13T03:52:56.437Z,14.97
2022-09-13T03:55:26.488Z,13.50
2022-09-13T03:57:54.834Z,13.03
2022-09-13T04:00:23.956Z,14.80
2022-09-13T04:02:52.252Z,14.43
2022-09-13T04:05:20.633Z,13.50
2022-09-13T04:07:49.017Z,12.67
2022-09-13T04:10:17.367Z,15.63
2022-09-13T04:12:47.091Z,25.50
2022-09-13T04:15:16.214Z,13.57
2022-09-13T04:17:44.590Z,15.10
2022-09-13T04:20:12.946Z,15.20
2022-09-13T04:22:42.209Z,14.57
2022-09-13T04:25:11.129Z,15.77
2022-09-13T04:27:39.418Z,16.37
2022-09-13T04:30:11.913Z,14.47
2022-09-13T04:32:40.224Z,20.10
2022-09-13T04:35:09.406Z,14.13
2022-09-13T04:37:38.542Z,17.17
2022-09-13T04:40:09.161Z,15.83
2022-09-13T04:42:37.832Z,14.23
2022-09-13T04:45:09.316Z,15.27
2022-09-13T04:47:38.063Z,12.80
2022-09-13T04:50:07.506Z,16.13
2022-09-13T04:52:35.997Z,13.83
2022-09-13T04:55:04.498Z,15.30
2022-09-13T04:57:32.715Z,14.30
2022-09-13T05:00:00.953Z,15.50
2022-09-13T05:02:30.666Z,13.80
2022-09-13T05:04:59.152Z,14.50
2022-09-13T05:07:27.648Z,14.20
2022-09-13T05:09:55.951Z,13.70
2022-09-13T05:12:24.232Z,15.27
2022-09-13T05:14:52.581Z,14.63
2022-09-13T05:17:21.764Z,17.80
2022-09-13T05:19:51.688Z,15.97
2022-09-13T05:22:19.985Z,15.00
2022-09-13T05:24:48.297Z,14.60
2022-09-13T05:27:16.579Z,14.07
2022-09-13T05:29:44.888Z,18.20
2022-09-13T05:32:13.148Z,16.97
2022-09-13T05:34:41.446Z,19.33
2022-09-13T05:37:11.158Z,17.53
2022-09-13T05:40:00.652Z,16.27
2022-09-13T05:42:27.759Z,18.03
2022-09-13T05:44:57.537Z,16.20
2022-09-13T05:47:26.077Z,21.40
2022-09-13T05:50:11.799Z,19.00
2022-09-13T05:52:44.326Z,19.23
2022-09-13T05:55:12.638Z,15.30
2022-09-13T05:57:40.981Z,16.20
2022-09-13T06:00:11.640Z,16.90
2022-09-13T06:02:43.629Z,16.40
2022-09-13T06:05:12.660Z,20.50
2022-09-13T06:07:43.663Z,16.10
2022-09-13T06:10:13.348Z,19.43
2022-09-13T06:12:41.921Z,15.90
2022-09-13T06:15:11.524Z,15.73
2022-09-13T06:17:39.803Z,14.57
2022-09-13T06:20:10.642Z,17.03
2022-09-13T06:22:39.197Z,19.27
2022-09-13T06:25:10.806Z,14.73
2022-09-13T06:27:39.085Z,19.63
2022-09-13T06:30:12.048Z,17.30
2022-09-13T06:32:40.976Z,15.97
2022-09-13T06:35:10.360Z,16.23
2022-09-13T06:37:39.045Z,14.27
2022-09-13T06:40:09.940Z,18.70
2022-09-13T06:42:38.429Z,20.27
2022-09-13T06:45:08.350Z,17.03
2022-09-13T06:47:36.868Z,17.73
2022-09-13T06:50:05.763Z,16.23
2022-09-13T06:52:34.096Z,19.20
2022-09-13T06:55:02.433Z,25.47
2022-09-13T06:57:33.153Z,19.23
2022-09-13T07:00:01.584Z,19.53
2022-09-13T07:02:29.989Z,20.00
2022-09-13T07:04:58.240Z,21.97
2022-09-13T07:07:26.542Z,21.70
2022-09-13T07:09:55.106Z,25.83
2022-09-13T07:12:23.366Z,19.37
2022-09-13T07:14:53.693Z,21.43
2022-09-13T07:17:21.978Z,22.80
2022-09-13T07:19:50.281Z,24.43
2022-09-13T07:22:18.606Z,30.03
2022-09-13T07:24:47.023Z,22.17
2022-09-13T07:27:16.803Z,22.03
2022-09-13T07:29:45.149Z,20.50
2022-09-13T07:32:14.931Z,21.23
2022-09-13T07:34:43.136Z,17.43
2022-09-13T07:37:11.701Z,19.67
2022-09-13T07:39:40.123Z,17.33
2022-09-13T07:42:08.562Z,17.97
2022-09-13T07:44:36.859Z,19.57
2022-09-13T07:47:05.602Z,21.83
2022-09-13T07:49:35.295Z,17.50
2022-09-13T07:52:03.845Z,17.70
2022-09-13T07:54:32.080Z,19.93
2022-09-13T07:57:01.041Z,19.80
2022-09-13T07:59:30.271Z,20.13
2022-09-13T08:01:58.927Z,17.37
2022-09-13T08:04:27.667Z,17.53
2022-09-13T08:06:57.386Z,19.93
2022-09-13T08:09:25.853Z,17.20
2022-09-13T08:11:54.616Z,19.50
2022-09-13T08:14:24.448Z,14.50
2022-09-13T08:16:55.930Z,12.90
2022-09-13T08:19:24.335Z,12.40
2022-09-13T08:21:52.623Z,9.33
2022-09-13T08:24:23.753Z,9.33
2022-09-13T08:26:52.858Z,11.83
2022-09-13T08:29:21.333Z,7.17
2022-09-13T08:31:49.587Z,9.40
2022-09-13T08:34:18.459Z,8.67
2022-09-13T08:36:46.854Z,9.67
2022-09-13T08:39:15.388Z,10.00
2022-09-13T08:42:12.769Z,5.73
2022-09-13T08:44:47.098Z,10.83
2022-09-13T08:47:42.959Z,7.40
2022-09-13T08:50:20.403Z,6.90
2022-09-13T08:53:09.892Z,10.10
2022-09-13T08:55:50.549Z,5.80
2022-09-13T08:58:46.433Z,9.63
2022-09-13T09:01:31.646Z,7.63
2022-09-13T09:04:08.358Z,5.70
2022-09-13T09:06:37.681Z,6.50
2022-09-13T09:09:09.468Z,5.50
2022-09-13T09:11:43.817Z,5.10
2022-09-13T09:14:26.031Z,4.73
2022-09-13T09:16:59.623Z,4.60
2022-09-13T09:19:35.287Z,6.40
2022-09-13T09:22:07.768Z,6.03
2022-09-13T09:24:38.801Z,4.33
2022-09-13T09:27:16.542Z,5.03
2022-09-13T09:29:48.723Z,3.97
2022-09-13T09:32:37.218Z,4.00
2022-09-13T09:35:16.304Z,4.40
2022-09-13T09:37:55.518Z,4.97
2022-09-13T09:40:26.443Z,3.93
2022-09-13T09:42:56.886Z,3.00
2022-09-13T09:45:29.741Z,4.93
2022-09-13T09:48:06.694Z,3.90
2022-09-13T09:50:40.594Z,2.93
2022-09-13T09:53:14.769Z,3.60
2022-09-13T09:55:48.678Z,3.60
2022-09-13T09:58:18.985Z,3.83
2022-09-13T10:00:57.441Z,4.00
2022-09-13T10:03:29.159Z,5.13
2022-09-13T10:06:09.578Z,4.77
2022-09-13T10:08:41.241Z,4.07
2022-09-13T10:11:10.772Z,3.30
2022-09-13T10:13:39.375Z,4.13
2022-09-13T10:16:26.632Z,6.00
2022-09-13T10:18:55.659Z,5.40
2022-09-13T10:21:26.444Z,4.90
2022-09-13T10:24:19.257Z,5.57
2022-09-13T10:26:47.694Z,6.20
2022-09-13T10:29:18.777Z,8.73
2022-09-13T10:31:54.023Z,6.47
2022-09-13T10:34:25.818Z,11.47
2022-09-13T10:36:59.177Z,9.50
2022-09-13T10:39:31.055Z,8.33
2022-09-13T10:42:05.418Z,9.60
2022-09-13T10:44:41.214Z,7.00
2022-09-13T10:47:20.861Z,6.57
2022-09-13T10:49:52.872Z,7.27
2022-09-13T10:52:34.961Z,6.50
2022-09-13T10:55:39.068Z,6.80
2022-09-13T10:58:20.141Z,5.37
2022-09-13T11:01:28.486Z,4.60
2022-09-13T11:04:56.617Z,5.13
2022-09-13T11:07:47.305Z,4.20
2022-09-13T11:10:26.356Z,4.00
2022-09-13T11:13:03.725Z,4.10
2022-09-13T11:15:50.896Z,4.70
2022-09-13T11:18:56.133Z,4.90
2022-09-13T11:21:43.885Z,3.93
2022-09-13T11:24:29.270Z,5.50
2022-09-13T11:27:10.376Z,5.63
2022-09-13T11:30:12.427Z,5.83
2022-09-13T11:33:07.843Z,5.23
2022-09-13T11:35:56.368Z,4.03
2022-09-13T11:38:50.757Z,3.50
2022-09-13T11:41:31.675Z,4.30
2022-09-13T11:44:29.846Z,3.10
2022-09-13T11:47:09.430Z,3.57
2022-09-13T11:50:04.374Z,6.43
2022-09-13T11:52:48.189Z,1.50
2022-09-13T11:55:29.386Z,3.93
2022-09-13T11:58:02.110Z,4.90
2022-09-13T12:00:36.091Z,3.97
2022-09-13T12:03:13.196Z,4.23
2022-09-13T12:05:48.628Z,4.40
2022-09-13T12:08:23.821Z,5.67
2022-09-13T12:10:57.797Z,3.10
2022-09-13T12:13:30.067Z,3.10
2022-09-13T12:16:03.697Z,2.80
2022-09-13T12:18:38.952Z,2.77
2022-09-13T12:21:10.335Z,3.50
2022-09-13T12:23:44.711Z,2.50
2022-09-13T12:26:21.266Z,6.03
2022-09-13T12:28:55.377Z,4.87
2022-09-13T12:31:26.864Z,4.10
2022-09-13T12:33:57.049Z,2.57
2022-09-13T12:36:58.218Z,3.00
2022-09-13T12:40:12.280Z,2.40
2022-09-13T12:43:11.525Z,2.63
2022-09-13T12:46:09.748Z,3.37
2022-09-13T12:49:11.589Z,3.20
2022-09-13T12:52:04.779Z,2.70
2022-09-13T12:55:02.153Z,2.47
2022-09-13T12:57:42.338Z,4.83
2022-09-13T13:00:24.233Z,4.13
2022-09-13T13:03:02.579Z,2.50
2022-09-13T13:05:35.036Z,2.60
2022-09-13T13:08:07.130Z,5.50
2022-09-13T13:10:39.098Z,5.33
2022-09-13T13:13:26.367Z,5.73
2022-09-13T13:16:21.160Z,3.63
2022-09-13T13:18:52.091Z,2.23
2022-09-13T13:21:40.048Z,2.83
2022-09-13T13:24:48.225Z,1.90
2022-09-13T13:27:48.047Z,2.10
2022-09-13T13:30:53.617Z,3.13
2022-09-13T13:33:31.987Z,1.60
2022-09-13T13:36:23.738Z,2.10
2022-09-13T13:38:53.701Z,2.93
2022-09-13T13:41:55.526Z,3.97
2022-09-13T13:45:14.864Z,4.63
2022-09-13T13:48:35.949Z,2.47
2022-09-13T13:51:20.810Z,3.23
2022-09-13T13:53:56.277Z,3.70
2022-09-13T13:56:46.183Z,2.53
2022-09-13T13:59:23.888Z,1.90
2022-09-13T14:01:59.277Z,1.60
2022-09-13T14:05:14.695Z,1.70
2022-09-13T14:08:33.448Z,3.33
2022-09-13T14:11:15.807Z,3.10
2022-09-13T14:13:59.692Z,2.17
2022-09-13T14:16:48.673Z,1.60
2022-09-13T14:19:25.293Z,2.67
2022-09-13T14:22:21.032Z,2.77
2022-09-13T14:24:50.690Z,1.90
2022-09-13T14:27:22.732Z,2.30
2022-09-13T14:29:54.205Z,2.30
2022-09-13T14:32:28.087Z,2.03
2022-09-13T14:35:03.737Z,3.63
2022-09-13T14:37:36.170Z,2.97
2022-09-13T14:40:19.113Z,1.60
2022-09-13T14:42:50.511Z,2.67
2022-09-13T14:45:22.986Z,1.93
2022-09-13T14:47:58.094Z,2.10
2022-09-13T14:50:31.121Z,5.37
2022-09-13T14:53:04.293Z,1.93
2022-09-13T14:55:39.276Z,2.00
2022-09-13T14:58:16.094Z,2.20
2022-09-13T15:00:51.682Z,2.33
2022-09-13T15:03:21.114Z,3.03
2022-09-13T15:05:57.003Z,1.83
2022-09-13T15:08:46.640Z,1.40
2022-09-13T15:11:29.753Z,1.73
2022-09-13T15:14:28.178Z,3.33
2022-09-13T15:17:01.850Z,1.70
2022-09-13T15:19:40.407Z,1.30
2022-09-13T15:22:21.895Z,2.07
2022-09-13T15:24:54.807Z,2.80
2022-09-13T15:27:29.573Z,1.70
2022-09-13T15:30:00.449Z,1.67
2022-09-13T15:32:35.974Z,3.37
2022-09-13T15:35:04.441Z,2.20
2022-09-13T15:37:37.121Z,4.17
2022-09-13T15:40:25.031Z,9.60
2022-09-13T15:42:54.207Z,5.37
2022-09-13T15:45:23.864Z,3.13
2022-09-13T15:47:54.264Z,5.30
2022-09-13T15:50:31.142Z,3.47
2022-09-13T15:53:01.515Z,4.00
2022-09-13T15:55:32.788Z,3.60
2022-09-13T15:58:01.047Z,2.63
2022-09-13T16:00:29.465Z,2.43
2022-09-13T16:02:57.803Z,1.50
2022-09-13T16:05:26.197Z,2.03
2022-09-13T16:07:58.798Z,4.20
2022-09-13T16:10:27.212Z,5.63
2022-09-13T16:12:56.855Z,6.03
2022-09-13T16:15:25.233Z,4.67
2022-09-13T16:17:53.764Z,3.57
2022-09-13T16:20:22.389Z,4.23
2022-09-13T16:22:50.938Z,6.77
2022-09-13T16:25:19.675Z,5.40
2022-09-13T16:27:48.465Z,2.73
2022-09-13T16:30:22.226Z,4.20
2022-09-13T16:32:51.035Z,3.73
2022-09-13T16:35:19.507Z,6.10
2022-09-13T16:37:51.393Z,7.20
2022-09-13T16:40:20.482Z,7.20
2022-09-13T16:42:48.874Z,6.47
2022-09-13T16:45:18.985Z,2.60
2022-09-13T16:47:47.250Z,2.57
2022-09-13T16:50:16.033Z,2.87
2022-09-13T16:52:44.550Z,5.50
2022-09-13T16:55:13.273Z,6.97
2022-09-13T16:57:42.127Z,7.03
2022-09-13T17:00:13.183Z,2.93
2022-09-13T17:02:43.184Z,6.57
2022-09-13T17:05:11.632Z,2.73
2022-09-13T17:07:40.570Z,4.63
2022-09-13T17:10:11.863Z,1.73
2022-09-13T17:12:40.789Z,2.10
2022-09-13T17:15:10.126Z,1.77
2022-09-13T17:17:38.630Z,2.47
2022-09-13T17:20:13.280Z,2.23
2022-09-13T17:22:42.294Z,3.20
2022-09-13T17:25:12.002Z,2.83
2022-09-13T17:27:40.510Z,3.53
2022-09-13T17:30:12.407Z,4.70
2022-09-13T17:32:40.959Z,3.30
2022-09-13T17:35:12.040Z,7.83
2022-09-13T17:37:40.496Z,3.00
2022-09-13T17:40:10.058Z,3.30
2022-09-13T17:42:38.448Z,7.33
2022-09-13T17:45:07.732Z,6.37
2022-09-13T17:47:35.985Z,4.70
2022-09-13T17:50:04.809Z,3.57
2022-09-13T17:52:35.329Z,7.33
2022-09-13T17:55:03.919Z,6.70
2022-09-13T17:57:32.442Z,4.97
2022-09-13T18:00:00.848Z,7.97
2022-09-13T18:02:29.590Z,5.70
2022-09-13T18:04:58.909Z,6.97
2022-09-13T18:07:29.621Z,5.63
2022-09-13T18:09:59.075Z,10.17
2022-09-13T18:12:27.474Z,9.27
2022-09-13T18:14:55.879Z,11.00
2022-09-13T18:17:24.186Z,13.57
2022-09-13T18:19:52.497Z,12.20
2022-09-13T18:22:20.922Z,16.57
2022-09-13T18:24:49.155Z,10.60
2022-09-13T18:27:18.892Z,12.47
2022-09-13T18:29:50.183Z,10.00
2022-09-13T18:32:18.503Z,14.03
2022-09-13T18:34:46.888Z,14.37
2022-09-13T18:37:15.344Z,11.40
2022-09-13T18:39:43.707Z,17.93
2022-09-13T18:42:12.148Z,15.87
2022-09-13T18:44:42.615Z,17.50
2022-09-13T18:47:13.051Z,19.70
2022-09-13T18:49:42.041Z,14.60
2022-09-13T18:52:12.352Z,10.17
2022-09-13T18:54:41.954Z,9.17
2022-09-13T18:57:11.729Z,6.73
2022-09-13T18:59:42.227Z,6.00
2022-09-13T19:02:13.007Z,5.73
2022-09-13T19:04:42.659Z,3.03
2022-09-13T19:07:12.490Z,6.00
2022-09-13T19:09:42.709Z,4.73
2022-09-13T19:12:12.573Z,4.80
2022-09-13T19:14:43.348Z,4.40
2022-09-13T19:17:12.749Z,6.73
2022-09-13T19:19:41.837Z,6.43
2022-09-13T19:22:11.279Z,2.50
2022-09-13T19:24:40.137Z,2.33
2022-09-13T19:27:09.287Z,5.90
2022-09-13T19:29:38.611Z,2.30
2022-09-13T19:32:09.073Z,3.63
2022-09-13T19:34:38.002Z,4.47
2022-09-13T19:37:06.499Z,3.67
2022-09-13T19:39:35.261Z,3.00
2022-09-13T19:42:03.849Z,2.53
2022-09-13T19:44:32.149Z,2.60
2022-09-13T19:49:50.591Z,3.30
2022-09-13T19:52:18.891Z,2.93
2022-09-13T19:54:47.198Z,2.10
2022-09-13T19:57:15.496Z,3.20
2022-09-13T19:59:43.973Z,2.43
2022-09-13T20:02:12.541Z,1.97
2022-09-13T20:04:41.291Z,4.07
2022-09-13T20:07:13.337Z,2.87
2022-09-13T20:09:42.392Z,2.43
2022-09-13T20:12:12.650Z,3.40
2022-09-13T20:14:41.029Z,3.80
2022-09-13T20:17:09.348Z,5.30
2022-09-13T20:19:43.841Z,2.30
2022-09-13T20:22:17.581Z,3.10
2022-09-13T20:24:45.962Z,2.40
2022-09-13T20:27:14.498Z,1.80
2022-09-13T20:29:42.870Z,2.33
2022-09-13T20:32:11.505Z,6.97
2022-09-13T20:34:39.752Z,3.87
2022-09-13T20:37:08.104Z,2.80
2022-09-13T20:39:37.945Z,6.90
2022-09-13T20:42:06.715Z,6.23
2022-09-13T20:44:34.950Z,3.57
2022-09-13T20:47:03.411Z,6.03
2022-09-13T20:49:31.653Z,4.73
2022-09-13T20:52:00.008Z,4.23
2022-09-13T20:54:28.390Z,4.67
2022-09-13T20:56:58.235Z,3.40
2022-09-13T20:59:26.817Z,5.40
2022-09-13T21:01:55.228Z,5.43
2022-09-13T21:04:24.272Z,8.20
2022-09-13T21:07:14.458Z,2.73
2022-09-13T21:09:43.487Z,4.53
2022-09-13T21:12:14.433Z,3.10
2022-09-13T21:14:42.852Z,4.80
2022-09-13T21:17:11.535Z,4.03
2022-09-13T21:19:40.092Z,3.40
2022-09-13T21:22:09.885Z,5.97
2022-09-13T21:24:38.509Z,3.03
2022-09-13T21:27:07.608Z,5.67
2022-09-13T21:29:37.331Z,6.67
2022-09-13T21:32:05.757Z,4.37
2022-09-13T21:34:33.984Z,3.03
2022-09-13T21:37:02.403Z,5.83
2022-09-13T21:39:31.269Z,2.60
2022-09-13T21:41:59.435Z,5.50
2022-09-13T21:44:28.247Z,2.77
2022-09-13T21:46:57.939Z,5.30
2022-09-13T21:49:26.254Z,6.43
2022-09-13T21:51:55.119Z,2.93
2022-09-13T21:54:24.811Z,5.53
2022-09-13T21:56:55.103Z,9.53
2022-09-13T21:59:24.502Z,4.37
2022-09-13T22:01:54.920Z,5.90
2022-09-13T22:04:27.526Z,6.80
2022-09-13T22:06:56.478Z,3.93
2022-09-13T22:09:27.632Z,3.43
2022-09-13T22:11:57.444Z,3.50
2022-09-13T22:14:26.756Z,7.40
2022-09-13T22:16:55.167Z,6.30
2022-09-13T22:19:28.040Z,5.33
2022-09-13T22:21:59.537Z,4.97
2022-09-13T22:24:32.101Z,5.13
2022-09-13T22:27:00.794Z,2.83
2022-09-13T22:29:29.548Z,5.83
2022-09-13T22:31:57.993Z,4.27
2022-09-13T22:34:30.857Z,5.53
2022-09-13T22:37:00.159Z,5.47
2022-09-13T22:39:28.492Z,5.77
2022-09-13T22:41:56.681Z,6.50
2022-09-13T22:44:24.907Z,5.37
2022-09-13T22:46:53.284Z,15.43
2022-09-13T22:49:21.640Z,4.50
2022-09-13T22:51:51.309Z,5.03
2022-09-13T22:54:20.598Z,3.43
2022-09-13T22:56:49.438Z,5.80
2022-09-13T22:59:20.551Z,3.80
2022-09-13T23:01:49.091Z,4.03
2022-09-13T23:04:17.809Z,6.70
2022-09-13T23:06:46.469Z,4.30
2022-09-13T23:09:18.923Z,4.13
2022-09-13T23:11:47.977Z,8.13
2022-09-13T23:14:19.883Z,3.30
2022-09-13T23:16:51.179Z,4.40
2022-09-13T23:19:23.053Z,4.70
2022-09-13T23:21:53.485Z,3.47
2022-09-13T23:24:24.286Z,5.10
2022-09-13T23:26:55.174Z,4.27
2022-09-13T23:29:24.056Z,4.57
2022-09-13T23:31:52.563Z,5.03
2022-09-13T23:34:20.902Z,6.80
2022-09-13T23:36:49.064Z,6.03
2022-09-13T23:39:20.225Z,6.87
2022-09-13T23:41:50.984Z,3.43
2022-09-13T23:44:19.896Z,5.60
2022-09-13T23:46:48.156Z,4.27
2022-09-13T23:49:17.005Z,8.23
2022-09-13T23:51:45.992Z,5.47
2022-09-13T23:54:15.033Z,5.10
2022-09-13T23:56:44.220Z,9.13
2022-09-13T23:59:14.338Z,4.70
